createdAt,value
2018-03-04T00:00:16.789Z,30.48
2018-03-04T00:01:22.394Z,32.70
2018-03-04T00:02:28.272Z,30.23
2018-03-04T00:03:34.190Z,29.83
2018-03-04T00:04:40.144Z,32.97
2018-03-04T00:05:46.312Z,31.80
2018-03-04T00:06:52.460Z,29.23
2018-03-04T00:08:04.714Z,28.73
2018-03-04T00:09:14.984Z,28.55
2018-03-04T00:10:21.136Z,30.75
2018-03-04T00:11:27.040Z,29.52
2018-03-04T00:12:33.189Z,29.20
2018-03-04T00:13:39.368Z,28.42
2018-03-04T00:14:45.504Z,30.50
2018-03-04T00:15:51.697Z,29.05
2018-03-04T00:16:57.985Z,30.45
2018-03-04T00:18:04.142Z,33.05
2018-03-04T00:19:10.275Z,30.62
2018-03-04T00:20:16.434Z,29.77
2018-03-04T00:21:22.356Z,32.92
2018-03-04T00:22:39.976Z,31.55
2018-03-04T00:23:46.126Z,32.90
2018-03-04T00:24:52.336Z,30.80
2018-03-04T00:25:58.455Z,31.85
2018-03-04T00:27:04.641Z,31.70
2018-03-04T00:28:10.824Z,31.45
2018-03-04T00:29:16.987Z,30.80
2018-03-04T00:30:23.184Z,30.80
2018-03-04T00:31:29.370Z,32.90
2018-03-04T00:32:35.552Z,31.27
2018-03-04T00:33:41.731Z,31.62
2018-03-04T00:34:47.861Z,30.90
2018-03-04T00:35:54.044Z,32.13
2018-03-04T00:37:00.198Z,29.87
2018-03-04T00:38:06.385Z,32.85
2018-03-04T00:39:12.552Z,32.13
2018-03-04T00:40:18.679Z,29.58
2018-03-04T00:41:24.932Z,29.45
2018-03-04T00:42:31.084Z,30.12
2018-03-04T00:43:37.299Z,30.17
2018-03-04T00:44:43.738Z,32.22
2018-03-04T00:45:49.932Z,29.25
2018-03-04T00:46:56.368Z,32.67
2018-03-04T00:48:02.529Z,30.75
2018-03-04T00:49:08.683Z,30.98
2018-03-04T00:50:14.642Z,32.28
2018-03-04T00:51:20.443Z,30.55
2018-03-04T00:52:26.633Z,32.15
2018-03-04T00:53:32.833Z,31.75
2018-03-04T00:54:42.135Z,32.75
2018-03-04T00:55:51.465Z,32.20
2018-03-04T00:56:57.669Z,31.70
2018-03-04T00:58:04.177Z,30.35
2018-03-04T00:59:10.347Z,30.20
2018-03-04T01:00:16.491Z,29.33
2018-03-04T01:01:22.661Z,32.50
2018-03-04T01:02:28.817Z,30.08
2018-03-04T01:03:34.976Z,32.17
2018-03-04T01:04:41.097Z,33.88
2018-03-04T01:05:47.284Z,31.85
2018-03-04T01:06:53.456Z,30.05
2018-03-04T01:07:59.638Z,33.55
2018-03-04T01:09:04.809Z,30.58
2018-03-04T01:10:10.531Z,30.73
2018-03-04T01:11:17.069Z,32.47
2018-03-04T01:12:22.911Z,32.08
2018-03-04T01:13:28.929Z,30.67
2018-03-04T01:14:35.232Z,33.03
2018-03-04T01:15:41.404Z,32.85
2018-03-04T01:16:47.618Z,32.20
2018-03-04T01:17:53.809Z,32.50
2018-03-04T01:18:59.976Z,34.67
2018-03-04T01:20:06.103Z,29.67
2018-03-04T01:21:12.258Z,32.42
2018-03-04T01:22:19.036Z,33.33
2018-03-04T01:23:25.054Z,30.77
2018-03-04T01:24:31.187Z,30.42
2018-03-04T01:25:37.402Z,31.15
2018-03-04T01:26:43.559Z,32.70
2018-03-04T01:27:49.773Z,30.80
2018-03-04T01:28:56.125Z,30.35
2018-03-04T01:30:02.278Z,33.13
2018-03-04T01:31:07.744Z,33.38
2018-03-04T01:32:13.876Z,30.83
2018-03-04T01:33:20.027Z,30.55
2018-03-04T01:34:26.249Z,32.45
2018-03-04T01:35:32.439Z,30.92
2018-03-04T01:36:38.610Z,31.00
2018-03-04T01:37:44.761Z,30.27
2018-03-04T01:38:51.032Z,30.60
2018-03-04T01:39:57.176Z,33.28
2018-03-04T01:41:03.364Z,30.70
2018-03-04T01:42:09.652Z,32.10
2018-03-04T01:43:15.600Z,32.20
2018-03-04T01:44:21.782Z,27.25
2018-03-04T01:45:27.972Z,31.58
2018-03-04T01:46:34.140Z,30.27
2018-03-04T01:47:40.311Z,25.65
2018-03-04T01:48:46.473Z,32.47
2018-03-04T01:49:52.705Z,29.80
2018-03-04T01:50:58.884Z,31.20
2018-03-04T01:52:05.057Z,29.73
2018-03-04T01:53:11.193Z,30.05
2018-03-04T01:54:17.008Z,29.48
2018-03-04T01:55:23.166Z,27.98
2018-03-04T01:56:30.195Z,29.40
2018-03-04T01:57:36.371Z,28.23
2018-03-04T01:58:42.569Z,29.58
2018-03-04T01:59:48.713Z,30.35
2018-03-04T02:00:54.521Z,30.85
2018-03-04T02:02:01.794Z,29.50
2018-03-04T02:03:07.953Z,29.63
2018-03-04T02:04:13.847Z,28.73
2018-03-04T02:05:19.982Z,30.60
2018-03-04T02:06:26.178Z,29.42
2018-03-04T02:07:32.151Z,29.85
2018-03-04T02:08:38.314Z,19.10
2018-03-04T02:09:44.532Z,30.60
2018-03-04T02:10:50.696Z,28.67
2018-03-04T02:11:56.839Z,28.85
2018-03-04T02:13:02.989Z,28.77
2018-03-04T02:14:09.260Z,28.75
2018-03-04T02:15:15.469Z,30.00
2018-03-04T02:16:21.659Z,30.58
2018-03-04T02:17:27.852Z,31.27
2018-03-04T02:18:33.956Z,30.83
2018-03-04T02:19:40.174Z,31.92
2018-03-04T02:20:46.312Z,33.50
2018-03-04T02:21:53.380Z,31.45
2018-03-04T02:22:59.510Z,29.85
2018-03-04T02:24:05.726Z,30.35
2018-03-04T02:25:11.906Z,30.23
2018-03-04T02:26:18.069Z,29.17
2018-03-04T02:27:24.223Z,29.67
2018-03-04T02:28:30.399Z,31.73
2018-03-04T02:29:36.611Z,31.73
2018-03-04T02:30:42.545Z,32.40
2018-03-04T02:31:48.702Z,30.25
2018-03-04T02:32:54.946Z,30.62
2018-03-04T02:34:01.129Z,30.77
2018-03-04T02:35:07.253Z,29.23
2018-03-04T02:36:13.454Z,28.73
2018-03-04T02:37:19.582Z,29.95
2018-03-04T02:38:25.708Z,32.30
2018-03-04T02:39:31.881Z,29.05
2018-03-04T02:40:37.999Z,32.05
2018-03-04T02:41:44.229Z,29.00
2018-03-04T02:42:50.440Z,31.73
2018-03-04T02:43:56.755Z,28.70
2018-03-04T02:45:02.945Z,28.92
2018-03-04T02:46:09.981Z,29.25
2018-03-04T02:47:15.814Z,31.55
2018-03-04T02:48:21.760Z,33.05
2018-03-04T02:49:28.019Z,31.42
2018-03-04T02:50:35.142Z,30.00
2018-03-04T02:51:41.276Z,30.17
2018-03-04T02:52:47.445Z,31.20
2018-03-04T02:53:53.588Z,32.10
2018-03-04T02:54:59.741Z,30.40
2018-03-04T02:56:05.922Z,31.60
2018-03-04T02:57:12.980Z,30.92
2018-03-04T02:58:19.149Z,30.17
2018-03-04T02:59:25.366Z,32.70
2018-03-04T03:00:31.550Z,31.73
2018-03-04T03:01:38.020Z,31.23
2018-03-04T03:02:44.156Z,29.70
2018-03-04T03:03:50.275Z,31.55
2018-03-04T03:05:02.476Z,30.10
2018-03-04T03:06:08.641Z,31.08
2018-03-04T03:07:18.459Z,29.98
2018-03-04T03:08:25.499Z,29.67
2018-03-04T03:09:31.696Z,29.75
2018-03-04T03:10:37.545Z,30.48
2018-03-04T03:11:44.446Z,32.50
2018-03-04T03:12:50.594Z,32.10
2018-03-04T03:13:56.736Z,31.48
2018-03-04T03:15:02.909Z,32.58
2018-03-04T03:16:09.096Z,30.40
2018-03-04T03:17:15.407Z,27.67
2018-03-04T03:18:21.626Z,31.25
2018-03-04T03:19:28.680Z,29.77
2018-03-04T03:20:34.901Z,32.65
2018-03-04T03:21:41.058Z,29.63
2018-03-04T03:22:47.205Z,30.30
2018-03-04T03:23:54.245Z,32.20
2018-03-04T03:25:01.299Z,31.00
2018-03-04T03:26:08.390Z,32.80
2018-03-04T03:27:14.570Z,32.65
2018-03-04T03:28:20.803Z,31.50
2018-03-04T03:29:27.044Z,34.20
2018-03-04T03:30:33.240Z,31.37
2018-03-04T03:31:39.403Z,32.35
2018-03-04T03:32:45.569Z,31.55
2018-03-04T03:33:51.727Z,31.90
2018-03-04T03:34:57.920Z,31.77
2018-03-04T03:36:04.927Z,32.28
2018-03-04T03:37:11.180Z,32.10
2018-03-04T03:38:17.476Z,31.83
2018-03-04T03:39:23.634Z,31.73
2018-03-04T03:40:29.494Z,30.20
2018-03-04T03:41:35.608Z,32.80
2018-03-04T03:42:41.789Z,32.72
2018-03-04T03:43:53.271Z,32.05
2018-03-04T03:44:59.458Z,33.53
2018-03-04T03:46:06.303Z,31.00
2018-03-04T03:47:12.534Z,34.45
2018-03-04T03:48:18.992Z,32.83
2018-03-04T03:49:25.144Z,32.35
2018-03-04T03:50:31.308Z,31.70
2018-03-04T03:51:42.393Z,31.80
2018-03-04T03:52:50.480Z,33.60
2018-03-04T03:54:02.477Z,31.37
2018-03-04T03:55:08.652Z,31.50
2018-03-04T03:56:14.833Z,32.15
2018-03-04T03:57:26.163Z,32.97
2018-03-04T03:58:33.246Z,29.85
2018-03-04T03:59:39.463Z,32.83
2018-03-04T04:00:45.599Z,32.38
2018-03-04T04:01:51.775Z,33.03
2018-03-04T04:02:57.920Z,31.90
2018-03-04T04:04:04.154Z,32.08
2018-03-04T04:05:10.283Z,31.80
2018-03-04T04:06:16.428Z,30.08
2018-03-04T04:07:22.637Z,33.05
2018-03-04T04:08:28.752Z,31.05
2018-03-04T04:09:34.869Z,31.40
2018-03-04T04:10:41.104Z,32.30
2018-03-04T04:11:47.350Z,32.30
2018-03-04T04:12:53.497Z,32.58
2018-03-04T04:13:59.612Z,31.62
2018-03-04T04:15:05.844Z,32.35
2018-03-04T04:16:12.036Z,31.50
2018-03-04T04:17:18.141Z,33.00
2018-03-04T04:18:24.377Z,32.92
2018-03-04T04:19:30.384Z,31.75
2018-03-04T04:20:36.207Z,32.55
2018-03-04T04:21:42.383Z,33.75
2018-03-04T04:22:48.551Z,31.27
2018-03-04T04:23:54.462Z,33.17
2018-03-04T04:25:00.652Z,32.47
2018-03-04T04:26:06.157Z,33.25
2018-03-04T04:27:12.304Z,33.75
2018-03-04T04:28:18.440Z,33.70
2018-03-04T04:29:24.606Z,33.65
2018-03-04T04:30:31.681Z,32.92
2018-03-04T04:31:37.936Z,32.88
2018-03-04T04:32:44.082Z,32.10
2018-03-04T04:33:49.924Z,32.67
2018-03-04T04:34:56.112Z,32.92
2018-03-04T04:36:02.262Z,32.13
2018-03-04T04:37:08.424Z,32.03
2018-03-04T04:38:14.759Z,33.40
2018-03-04T04:39:20.991Z,31.85
2018-03-04T04:40:27.114Z,33.03
2018-03-04T04:41:33.306Z,34.17
2018-03-04T04:42:40.340Z,30.45
2018-03-04T04:43:46.520Z,33.10
2018-03-04T04:44:52.642Z,34.50
2018-03-04T04:45:58.786Z,31.92
2018-03-04T04:47:05.317Z,32.72
2018-03-04T04:48:11.298Z,30.62
2018-03-04T04:49:17.853Z,32.95
2018-03-04T04:50:24.026Z,30.75
2018-03-04T04:51:30.160Z,31.77
2018-03-04T04:52:36.314Z,33.35
2018-03-04T04:53:42.461Z,33.95
2018-03-04T04:54:48.641Z,33.70
2018-03-04T04:55:54.792Z,33.38
2018-03-04T04:57:00.951Z,34.80
2018-03-04T04:58:07.088Z,33.45
2018-03-04T04:59:13.284Z,33.38
2018-03-04T05:00:19.472Z,33.30
2018-03-04T05:01:25.692Z,32.72
2018-03-04T05:02:31.892Z,34.63
2018-03-04T05:03:38.024Z,31.95
2018-03-04T05:04:44.219Z,32.95
2018-03-04T05:05:50.402Z,34.20
2018-03-04T05:06:56.529Z,31.12
2018-03-04T05:08:02.678Z,34.47
2018-03-04T05:09:08.810Z,32.10
2018-03-04T05:10:15.015Z,34.95
2018-03-04T05:11:21.151Z,33.25
2018-03-04T05:12:28.183Z,34.80
2018-03-04T05:13:34.344Z,30.33
2018-03-04T05:14:40.516Z,33.28
2018-03-04T05:15:46.713Z,33.72
2018-03-04T05:16:52.893Z,33.45
2018-03-04T05:17:59.058Z,33.70
2018-03-04T05:19:05.283Z,31.87
2018-03-04T05:20:11.508Z,32.83
2018-03-04T05:21:18.565Z,32.72
2018-03-04T05:22:24.833Z,34.95
2018-03-04T05:23:30.979Z,33.90
2018-03-04T05:24:37.135Z,33.88
2018-03-04T05:25:43.305Z,35.75
2018-03-04T05:26:49.440Z,33.78
2018-03-04T05:27:55.692Z,35.75
2018-03-04T05:29:01.865Z,32.28
2018-03-04T05:30:08.096Z,36.53
2018-03-04T05:31:14.242Z,33.60
2018-03-04T05:32:20.414Z,34.95
2018-03-04T05:33:27.228Z,33.42
2018-03-04T05:34:33.417Z,35.40
2018-03-04T05:35:40.339Z,32.63
2018-03-04T05:36:46.485Z,33.97
2018-03-04T05:37:52.630Z,31.02
2018-03-04T05:38:59.713Z,32.45
2018-03-04T05:40:05.522Z,31.98
2018-03-04T05:41:11.734Z,32.60
2018-03-04T05:42:18.821Z,32.15
2018-03-04T05:43:24.928Z,32.65
2018-03-04T05:44:31.123Z,34.97
2018-03-04T05:45:37.272Z,34.60
2018-03-04T05:46:43.484Z,33.55
2018-03-04T05:47:50.003Z,36.25
2018-03-04T05:48:56.202Z,33.63
2018-03-04T05:50:02.402Z,32.25
2018-03-04T05:51:08.545Z,32.83
2018-03-04T05:52:14.724Z,32.67
2018-03-04T05:53:20.666Z,31.90
2018-03-04T05:54:26.885Z,33.53
2018-03-04T05:55:38.690Z,30.98
2018-03-04T05:56:44.852Z,33.00
2018-03-04T05:57:50.744Z,32.10
2018-03-04T05:58:56.944Z,32.63
2018-03-04T06:00:03.179Z,32.65
2018-03-04T06:01:09.336Z,35.85
2018-03-04T06:02:15.696Z,33.55
2018-03-04T06:03:21.852Z,32.55
2018-03-04T06:04:27.743Z,33.40
2018-03-04T06:05:33.938Z,32.10
2018-03-04T06:06:40.199Z,33.13
2018-03-04T06:07:46.428Z,33.08
2018-03-04T06:08:52.663Z,32.67
2018-03-04T06:09:58.791Z,32.70
2018-03-04T06:11:05.007Z,31.92
2018-03-04T06:12:11.221Z,33.38
2018-03-04T06:13:17.368Z,31.77
2018-03-04T06:14:23.521Z,33.45
2018-03-04T06:15:29.694Z,33.45
2018-03-04T06:16:35.848Z,34.67
2018-03-04T06:17:42.084Z,35.42
2018-03-04T06:18:48.239Z,34.15
2018-03-04T06:19:54.431Z,32.90
2018-03-04T06:21:01.209Z,33.47
2018-03-04T06:22:07.424Z,35.75
2018-03-04T06:23:13.615Z,33.55
2018-03-04T06:24:19.876Z,33.75
2018-03-04T06:25:25.979Z,33.80
2018-03-04T06:26:32.152Z,34.90
2018-03-04T06:27:38.331Z,34.08
2018-03-04T06:28:44.582Z,34.70
2018-03-04T06:29:50.755Z,32.90
2018-03-04T06:30:56.920Z,34.83
2018-03-04T06:32:03.078Z,36.35
2018-03-04T06:33:08.941Z,33.38
2018-03-04T06:34:15.070Z,34.47
2018-03-04T06:35:20.939Z,31.98
2018-03-04T06:36:27.100Z,33.55
2018-03-04T06:37:33.254Z,33.53
2018-03-04T06:38:39.409Z,33.70
2018-03-04T06:39:45.597Z,32.10
2018-03-04T06:40:51.809Z,34.60
2018-03-04T06:41:57.952Z,33.97
2018-03-04T06:43:04.087Z,32.40
2018-03-04T06:44:10.321Z,34.25
2018-03-04T06:45:16.521Z,30.95
2018-03-04T06:46:22.651Z,33.35
2018-03-04T06:47:28.798Z,34.80
2018-03-04T06:48:35.038Z,32.55
2018-03-04T06:49:41.260Z,33.78
2018-03-04T06:50:55.346Z,34.35
2018-03-04T06:52:01.475Z,34.22
2018-03-04T06:53:07.629Z,34.65
2018-03-04T06:54:13.797Z,34.05
2018-03-04T06:55:19.941Z,32.03
2018-03-04T06:56:26.186Z,36.08
2018-03-04T06:57:31.974Z,31.20
2018-03-04T06:58:37.720Z,34.30
2018-03-04T06:59:43.906Z,34.35
2018-03-04T07:00:50.103Z,34.35
2018-03-04T07:01:59.071Z,35.72
2018-03-04T07:03:05.843Z,34.35
2018-03-04T07:04:13.013Z,31.87
2018-03-04T07:05:19.260Z,32.65
2018-03-04T07:06:26.047Z,33.05
2018-03-04T07:07:32.376Z,34.22
2018-03-04T07:08:38.590Z,33.03
2018-03-04T07:09:44.945Z,36.17
2018-03-04T07:10:51.170Z,35.25
2018-03-04T07:11:57.366Z,35.95
2018-03-04T07:13:03.892Z,33.05
2018-03-04T07:14:10.106Z,35.28
2018-03-04T07:15:16.371Z,36.53
2018-03-04T07:16:22.822Z,35.72
2018-03-04T07:17:29.021Z,38.03
2018-03-04T07:18:35.285Z,34.08
2018-03-04T07:19:41.754Z,34.90
2018-03-04T07:20:47.910Z,33.47
2018-03-04T07:21:54.076Z,34.95
2018-03-04T07:23:00.293Z,35.78
2018-03-04T07:24:06.557Z,34.40
2018-03-04T07:25:12.768Z,30.85
2018-03-04T07:26:19.230Z,29.15
2018-03-04T07:27:25.389Z,34.25
2018-03-04T07:28:31.588Z,36.28
2018-03-04T07:29:37.730Z,34.42
2018-03-04T07:30:44.251Z,35.20
2018-03-04T07:31:50.483Z,34.47
2018-03-04T07:32:56.612Z,35.22
2018-03-04T07:34:02.897Z,37.42
2018-03-04T07:35:09.195Z,37.63
2018-03-04T07:36:15.581Z,36.17
2018-03-04T07:37:21.938Z,36.13
2018-03-04T07:38:28.181Z,36.47
2018-03-04T07:39:34.737Z,35.97
2018-03-04T07:40:40.922Z,35.40
2018-03-04T07:41:47.387Z,35.60
2018-03-04T07:42:53.978Z,35.22
2018-03-04T07:44:00.386Z,36.17
2018-03-04T07:45:07.136Z,35.72
2018-03-04T07:46:13.047Z,35.80
2018-03-04T07:47:19.314Z,35.40
2018-03-04T07:48:31.105Z,36.47
2018-03-04T07:49:40.293Z,36.28
2018-03-04T07:50:46.864Z,35.97
2018-03-04T07:51:53.081Z,36.42
2018-03-04T07:52:59.236Z,34.30
2018-03-04T07:54:05.053Z,35.83
2018-03-04T07:55:12.024Z,35.45
2018-03-04T07:56:18.452Z,34.97
2018-03-04T07:57:24.902Z,34.65
2018-03-04T07:58:31.156Z,37.45
2018-03-04T07:59:37.428Z,34.53
2018-03-04T08:00:43.781Z,36.05
2018-03-04T08:01:50.370Z,33.60
2018-03-04T08:02:57.075Z,34.00
2018-03-04T08:04:03.252Z,34.55
2018-03-04T08:05:09.413Z,35.05
2018-03-04T08:06:15.619Z,35.53
2018-03-04T08:07:21.794Z,34.58
2018-03-04T08:08:28.074Z,34.45
2018-03-04T08:09:34.329Z,33.55
2018-03-04T08:10:40.772Z,35.17
2018-03-04T08:11:47.240Z,33.97
2018-03-04T08:12:53.517Z,36.13
2018-03-04T08:13:59.919Z,35.03
2018-03-04T08:15:06.129Z,35.80
2018-03-04T08:16:11.708Z,37.33
2018-03-04T08:17:18.048Z,35.17
2018-03-04T08:18:24.252Z,36.17
2018-03-04T08:19:30.594Z,36.33
2018-03-04T08:20:36.898Z,32.75
2018-03-04T08:21:43.214Z,34.40
2018-03-04T08:22:49.407Z,34.67
2018-03-04T08:23:55.629Z,36.80
2018-03-04T08:25:12.836Z,37.70
2018-03-04T08:26:30.341Z,34.63
2018-03-04T08:29:18.566Z,38.13
2018-03-04T08:30:24.903Z,37.10
2018-03-04T08:31:31.197Z,35.97
2018-03-04T08:32:37.421Z,35.25
2018-03-04T08:33:44.495Z,34.53
2018-03-04T08:34:50.682Z,34.83
2018-03-04T08:35:57.073Z,34.05
2018-03-04T08:37:02.942Z,35.17
2018-03-04T08:38:10.057Z,36.15
2018-03-04T08:39:16.364Z,37.30
2018-03-04T08:40:22.713Z,36.22
2018-03-04T08:41:29.876Z,36.13
2018-03-04T08:42:36.091Z,36.75
2018-03-04T08:43:42.740Z,34.50
2018-03-04T08:44:48.692Z,36.38
2018-03-04T08:45:55.409Z,35.42
2018-03-04T08:47:01.810Z,36.03
2018-03-04T08:48:08.167Z,34.67
2018-03-04T08:49:14.340Z,35.88
2018-03-04T08:50:20.564Z,35.75
2018-03-04T08:51:26.873Z,35.60
2018-03-04T08:52:33.009Z,35.30
2018-03-04T08:53:39.699Z,35.50
2018-03-04T08:54:45.916Z,38.50
2018-03-04T08:55:52.419Z,37.67
2018-03-04T08:56:59.269Z,37.42
2018-03-04T08:58:05.161Z,36.75
2018-03-04T08:59:11.609Z,34.10
2018-03-04T09:00:17.800Z,34.50
2018-03-04T09:01:24.023Z,34.55
2018-03-04T09:02:30.217Z,33.55
2018-03-04T09:03:36.536Z,34.88
2018-03-04T09:04:42.711Z,35.08
2018-03-04T09:05:48.939Z,36.13
2018-03-04T09:06:55.205Z,36.35
2018-03-04T09:08:01.829Z,36.13
2018-03-04T09:09:08.035Z,38.10
2018-03-04T09:10:14.634Z,32.50
2018-03-04T09:11:23.065Z,37.78
2018-03-04T09:12:30.048Z,36.42
2018-03-04T09:13:39.707Z,33.22
2018-03-04T09:14:46.037Z,36.53
2018-03-04T09:15:53.080Z,36.30
2018-03-04T09:16:59.357Z,33.28
2018-03-04T09:18:05.999Z,37.63
2018-03-04T09:19:12.843Z,36.08
2018-03-04T09:20:19.890Z,38.85
2018-03-04T09:21:26.386Z,37.00
2018-03-04T09:22:33.107Z,35.80
2018-03-04T09:23:42.504Z,39.90
2018-03-04T09:24:49.006Z,35.83
2018-03-04T09:25:55.657Z,36.05
2018-03-04T09:27:03.299Z,38.88
2018-03-04T09:28:11.037Z,37.92
2018-03-04T09:29:18.432Z,36.58
2018-03-04T09:30:25.129Z,41.08
2018-03-04T09:31:31.742Z,39.08
2018-03-04T09:32:38.148Z,42.53
2018-03-04T09:33:44.377Z,36.67
2018-03-04T09:34:50.760Z,39.42
2018-03-04T09:35:57.992Z,40.25
2018-03-04T09:37:05.093Z,40.75
2018-03-04T09:38:11.718Z,36.55
2018-03-04T09:39:18.121Z,41.40
2018-03-04T09:40:24.693Z,41.28
2018-03-04T09:41:31.078Z,27.30
2018-03-04T09:42:37.430Z,40.20
2018-03-04T09:43:43.923Z,42.42
2018-03-04T09:44:50.682Z,40.60
2018-03-04T09:45:58.047Z,39.40
2018-03-04T09:47:04.698Z,44.92
2018-03-04T09:48:11.321Z,39.70
2018-03-04T09:49:17.809Z,44.90
2018-03-04T09:50:26.600Z,49.83
2018-03-04T09:51:33.981Z,43.85
2018-03-04T09:52:40.585Z,40.60
2018-03-04T09:53:49.766Z,42.33
2018-03-04T09:54:56.711Z,42.08
2018-03-04T09:56:03.061Z,41.37
2018-03-04T09:57:11.105Z,41.80
2018-03-04T09:58:18.572Z,43.70
2018-03-04T09:59:27.790Z,38.92
2018-03-04T10:00:34.569Z,41.63
2018-03-04T10:01:41.422Z,43.00
2018-03-04T10:02:47.928Z,40.97
2018-03-04T10:03:54.426Z,41.45
2018-03-04T10:05:01.274Z,41.45
2018-03-04T10:06:08.117Z,41.70
2018-03-04T10:07:14.528Z,44.08
2018-03-04T10:08:25.666Z,42.72
2018-03-04T10:09:32.688Z,41.50
2018-03-04T10:10:39.372Z,43.95
2018-03-04T10:11:45.910Z,40.65
2018-03-04T10:12:52.489Z,42.38
2018-03-04T10:13:59.489Z,42.55
2018-03-04T10:15:06.016Z,46.40
2018-03-04T10:16:12.477Z,48.17
2018-03-04T10:17:19.447Z,44.00
2018-03-04T10:18:26.519Z,48.08
2018-03-04T10:19:33.701Z,61.88
2018-03-04T10:20:41.268Z,37.47
2018-03-04T10:21:51.602Z,39.13
2018-03-04T10:22:59.571Z,43.00
2018-03-04T10:24:07.362Z,42.75
2018-03-04T10:25:14.266Z,36.92
2018-03-04T10:26:22.414Z,39.30
2018-03-04T10:27:29.598Z,42.35
2018-03-04T10:28:38.749Z,39.35
2018-03-04T10:29:47.827Z,42.00
2018-03-04T10:30:55.658Z,41.40
2018-03-04T10:32:02.546Z,41.28
2018-03-04T10:33:10.338Z,40.42
2018-03-04T10:34:18.829Z,43.70
2018-03-04T10:35:26.640Z,44.75
2018-03-04T10:36:37.525Z,45.38
2018-03-04T10:37:45.612Z,42.40
2018-03-04T10:38:54.909Z,41.47
2018-03-04T10:40:02.010Z,45.80
2018-03-04T10:41:09.685Z,42.20
2018-03-04T10:42:17.285Z,36.85
2018-03-04T10:43:24.031Z,44.35
2018-03-04T10:44:31.145Z,43.17
2018-03-04T10:45:38.048Z,42.83
2018-03-04T10:46:47.310Z,40.42
2018-03-04T10:47:54.488Z,44.10
2018-03-04T10:49:01.201Z,42.92
2018-03-04T10:50:07.839Z,44.63
2018-03-04T10:51:14.744Z,45.00
2018-03-04T10:52:22.380Z,43.70
2018-03-04T10:53:29.381Z,44.95
2018-03-04T10:54:36.427Z,43.08
2018-03-04T10:55:43.500Z,46.78
2018-03-04T10:56:49.933Z,45.58
2018-03-04T10:57:55.989Z,110.12
2018-03-04T10:59:02.458Z,52.00
2018-03-04T11:00:09.078Z,47.20
2018-03-04T11:01:20.423Z,42.78
2018-03-04T11:02:35.417Z,43.55
2018-03-04T11:03:42.201Z,39.65
2018-03-04T11:04:48.761Z,41.92
2018-03-04T11:05:54.553Z,44.83
2018-03-04T11:07:01.275Z,41.22
2018-03-04T11:08:08.324Z,44.70
2018-03-04T11:09:15.900Z,43.92
2018-03-04T11:10:22.977Z,44.28
2018-03-04T11:11:29.741Z,41.22
2018-03-04T11:12:36.871Z,43.97
2018-03-04T11:13:45.276Z,44.17
2018-03-04T11:14:53.374Z,42.35
2018-03-04T11:16:00.125Z,42.45
2018-03-04T11:17:06.620Z,45.42
2018-03-04T11:18:13.923Z,44.40
2018-03-04T11:19:20.630Z,45.72
2018-03-04T11:20:27.290Z,43.20
2018-03-04T11:21:34.252Z,42.00
2018-03-04T11:22:42.693Z,44.80
2018-03-04T11:23:49.681Z,44.60
2018-03-04T11:24:56.437Z,44.40
2018-03-04T11:26:03.573Z,45.17
2018-03-04T11:27:10.610Z,44.92
2018-03-04T11:28:17.325Z,44.38
2018-03-04T11:29:24.025Z,42.03
2018-03-04T11:30:30.257Z,43.72
2018-03-04T11:31:36.496Z,43.33
2018-03-04T11:32:42.877Z,42.58
2018-03-04T11:33:49.085Z,44.25
2018-03-04T11:34:55.296Z,45.80
2018-03-04T11:36:01.971Z,45.20
2018-03-04T11:37:08.199Z,43.85
2018-03-04T11:38:14.121Z,43.75
2018-03-04T11:39:20.862Z,45.10
2018-03-04T11:40:27.288Z,42.53
2018-03-04T11:41:34.056Z,47.67
2018-03-04T11:42:40.280Z,43.60
2018-03-04T11:43:47.156Z,46.25
2018-03-04T11:44:53.405Z,43.28
2018-03-04T11:45:59.605Z,46.10
2018-03-04T11:47:05.904Z,45.83
2018-03-04T11:48:12.139Z,44.05
2018-03-04T11:49:18.826Z,45.40
2018-03-04T11:50:25.742Z,41.78
2018-03-04T11:51:32.407Z,45.63
2018-03-04T11:52:39.153Z,45.22
2018-03-04T11:53:45.819Z,43.35
2018-03-04T11:54:52.288Z,42.75
2018-03-04T11:55:59.172Z,43.10
2018-03-04T11:57:06.417Z,45.15
2018-03-04T11:58:13.740Z,45.45
2018-03-04T11:59:21.113Z,44.30
2018-03-04T12:00:31.077Z,45.55
2018-03-04T12:01:37.803Z,44.33
2018-03-04T12:02:45.168Z,43.08
2018-03-04T12:03:53.144Z,43.15
2018-03-04T12:04:59.650Z,44.95
2018-03-04T12:06:06.453Z,45.72
2018-03-04T12:07:14.464Z,45.08
2018-03-04T12:08:21.859Z,42.60
2018-03-04T12:09:28.485Z,43.05
2018-03-04T12:10:38.989Z,39.40
2018-03-04T12:11:46.995Z,38.63
2018-03-04T12:12:54.121Z,42.42
2018-03-04T12:14:04.378Z,42.25
2018-03-04T12:15:10.624Z,42.55
2018-03-04T12:16:18.222Z,42.35
2018-03-04T12:17:24.425Z,44.10
2018-03-04T12:18:30.666Z,46.05
2018-03-04T12:19:36.954Z,44.65
2018-03-04T12:20:43.175Z,38.42
2018-03-04T12:21:49.447Z,43.42
2018-03-04T12:23:01.428Z,38.03
2018-03-04T12:24:07.658Z,40.83
2018-03-04T12:25:13.891Z,41.50
2018-03-04T12:26:20.143Z,42.17
2018-03-04T12:27:26.938Z,42.13
2018-03-04T12:28:36.145Z,38.95
2018-03-04T12:29:43.214Z,39.53
2018-03-04T12:30:49.790Z,37.40
2018-03-04T12:31:56.032Z,34.83
2018-03-04T12:33:02.295Z,36.92
2018-03-04T12:34:08.205Z,35.00
2018-03-04T12:35:14.771Z,33.47
2018-03-04T12:36:20.994Z,35.78
2018-03-04T12:37:27.208Z,38.30
2018-03-04T12:38:33.471Z,37.30
2018-03-04T12:39:39.743Z,34.67
2018-03-04T12:40:46.008Z,34.72
2018-03-04T12:41:52.224Z,36.97
2018-03-04T12:42:58.691Z,37.05
2018-03-04T12:44:04.906Z,36.65
2018-03-04T12:45:11.194Z,35.25
2018-03-04T12:46:17.454Z,36.97
2018-03-04T12:47:23.674Z,37.70
2018-03-04T12:48:29.997Z,35.80
2018-03-04T12:49:36.047Z,35.92
2018-03-04T12:50:42.283Z,36.72
2018-03-04T12:51:48.492Z,36.95
2018-03-04T12:52:54.361Z,35.40
2018-03-04T12:54:00.628Z,37.88
2018-03-04T12:55:06.879Z,37.95
2018-03-04T12:56:13.392Z,36.35
2018-03-04T12:57:19.949Z,35.67
2018-03-04T12:58:26.097Z,36.03
2018-03-04T12:59:32.510Z,37.00
2018-03-04T13:00:38.756Z,36.58
2018-03-04T13:01:44.986Z,34.22
2018-03-04T13:02:51.222Z,35.90
2018-03-04T13:03:58.415Z,33.90
2018-03-04T13:05:04.644Z,34.22
2018-03-04T13:06:10.909Z,32.80
2018-03-04T13:07:17.126Z,34.35
2018-03-04T13:08:23.304Z,34.53
2018-03-04T13:09:30.987Z,35.45
2018-03-04T13:10:38.188Z,34.15
2018-03-04T13:11:44.422Z,33.30
2018-03-04T13:12:50.292Z,33.25
2018-03-04T13:13:56.182Z,33.08
2018-03-04T13:15:01.744Z,33.17
2018-03-04T13:16:07.972Z,34.28
2018-03-04T13:17:14.184Z,36.05
2018-03-04T13:18:19.755Z,36.08
2018-03-04T13:19:26.136Z,34.80
2018-03-04T13:20:32.997Z,34.67
2018-03-04T13:21:42.684Z,34.20
2018-03-04T13:22:48.901Z,33.05
2018-03-04T13:23:55.259Z,34.67
2018-03-04T13:25:01.467Z,33.72
2018-03-04T13:26:07.827Z,31.17
2018-03-04T13:27:14.034Z,33.25
2018-03-04T13:28:20.247Z,34.47
2018-03-04T13:29:26.408Z,32.80
2018-03-04T13:30:32.639Z,32.00
2018-03-04T13:31:39.736Z,30.98
2018-03-04T13:32:45.976Z,30.20
2018-03-04T13:33:52.180Z,32.47
2018-03-04T13:34:58.391Z,33.92
2018-03-04T13:36:04.594Z,34.85
2018-03-04T13:37:10.545Z,35.17
2018-03-04T13:38:16.745Z,36.08
2018-03-04T13:39:22.974Z,35.47
2018-03-04T13:40:29.182Z,34.00
2018-03-04T13:41:35.370Z,33.80
2018-03-04T13:42:41.588Z,35.20
2018-03-04T13:43:47.812Z,33.35
2018-03-04T13:44:54.087Z,34.13
2018-03-04T13:46:00.370Z,34.88
2018-03-04T13:47:06.602Z,35.90
2018-03-04T13:48:12.805Z,36.05
2018-03-04T13:49:19.390Z,32.30
2018-03-04T13:50:26.493Z,33.35
2018-03-04T13:51:32.741Z,28.08
2018-03-04T13:52:38.942Z,25.45
2018-03-04T13:53:45.178Z,29.83
2018-03-04T13:54:51.416Z,29.35
2018-03-04T13:55:57.708Z,29.80
2018-03-04T13:57:03.921Z,31.00
2018-03-04T13:58:10.092Z,30.52
2018-03-04T13:59:16.339Z,28.65
2018-03-04T14:00:22.586Z,29.58
2018-03-04T14:01:28.885Z,30.65
2018-03-04T14:02:34.933Z,30.92
2018-03-04T14:03:41.173Z,31.15
2018-03-04T14:04:47.399Z,31.42
2018-03-04T14:06:02.653Z,31.17
2018-03-04T14:07:08.873Z,28.12
2018-03-04T14:08:15.137Z,27.73
2018-03-04T14:09:21.403Z,29.67
2018-03-04T14:10:27.654Z,28.70
2018-03-04T14:11:33.824Z,29.15
2018-03-04T14:12:40.042Z,30.88
2018-03-04T14:13:46.293Z,29.40
2018-03-04T14:14:52.518Z,29.77
2018-03-04T14:15:58.756Z,28.92
2018-03-04T14:17:04.924Z,25.50
2018-03-04T14:18:11.149Z,25.90
2018-03-04T14:19:17.415Z,27.50